createdAt,value
2022-10-29T00:01:13.039Z,99751.50
2022-10-29T00:03:43.546Z,99745.16
2022-10-29T00:06:13.460Z,99747.75
2022-10-29T00:08:43.181Z,99754.72
2022-10-29T00:11:14.430Z,99756.22
2022-10-29T00:13:43.821Z,99757.84
2022-10-29T00:16:14.810Z,99745.88
2022-10-29T00:18:45.554Z,99758.66
2022-10-29T00:21:16.595Z,99754.34
2022-10-29T00:23:45.110Z,99765.06
2022-10-29T00:26:13.855Z,99778.25
2022-10-29T00:28:42.351Z,99776.28
2022-10-29T00:31:14.261Z,99771.66
2022-10-29T00:33:44.584Z,99777.53
2022-10-29T00:36:15.313Z,99778.59
2022-10-29T00:38:44.217Z,99779.50
2022-10-29T00:41:16.313Z,99786.16
2022-10-29T00:43:48.901Z,99791.44
2022-10-29T00:46:23.302Z,99792.44
2022-10-29T00:48:56.178Z,99801.50
2022-10-29T00:51:25.080Z,99813.84
2022-10-29T00:53:58.173Z,99828.06
2022-10-29T00:56:29.314Z,99836.63
2022-10-29T00:58:57.771Z,99848.81
2022-10-29T01:01:26.191Z,99851.44
2022-10-29T01:03:56.875Z,99874.63
2022-10-29T01:06:25.656Z,99866.13
2022-10-29T01:08:53.996Z,99886.19
2022-10-29T01:11:28.200Z,99880.50
2022-10-29T01:14:07.870Z,99903.13
2022-10-29T01:16:45.198Z,99907.59
2022-10-29T01:19:30.319Z,99897.72
2022-10-29T01:22:05.908Z,99903.41
2022-10-29T01:25:08.609Z,99905.31
2022-10-29T01:27:56.366Z,99919.34
2022-10-29T01:30:42.529Z,99906.78
2022-10-29T01:33:23.685Z,99935.72
2022-10-29T01:36:06.389Z,99938.97
2022-10-29T01:38:43.887Z,99958.66
2022-10-29T01:41:21.567Z,99950.34
2022-10-29T01:43:55.568Z,99936.88
2022-10-29T01:46:28.939Z,99962.75
2022-10-29T01:49:06.546Z,99971.66
2022-10-29T01:51:37.824Z,99980.16
2022-10-29T01:54:10.167Z,99976.63
2022-10-29T01:56:39.014Z,99986.41
2022-10-29T01:59:18.274Z,99988.09
2022-10-29T02:02:07.901Z,99993.75
2022-10-29T02:04:55.013Z,99989.94
2022-10-29T02:07:37.345Z,99984.84
2022-10-29T02:10:14.781Z,100001.88
2022-10-29T02:12:48.302Z,100005.72
2022-10-29T02:15:20.969Z,100015.34
2022-10-29T02:17:49.515Z,99993.03
2022-10-29T02:20:19.579Z,99999.59
2022-10-29T02:22:48.096Z,100004.78
2022-10-29T02:25:16.717Z,100023.69
2022-10-29T02:27:45.056Z,100044.84
2022-10-29T02:30:13.609Z,100046.88
2022-10-29T02:32:42.292Z,100049.22
2022-10-29T02:35:11.378Z,100052.88
2022-10-29T02:37:41.584Z,100049.50
2022-10-29T02:40:11.064Z,100060.75
2022-10-29T02:42:39.855Z,100063.25
2022-10-29T02:45:08.995Z,100058.97
2022-10-29T02:47:37.588Z,100064.13
2022-10-29T02:50:06.508Z,100065.00
2022-10-29T02:52:34.976Z,100070.38
2022-10-29T02:55:05.042Z,100084.66
2022-10-29T02:57:33.118Z,100091.59
2022-10-29T03:00:01.366Z,100087.38
2022-10-29T03:02:29.994Z,100104.06
2022-10-29T03:04:58.782Z,100097.81
2022-10-29T03:07:27.219Z,100104.94
2022-10-29T03:09:55.581Z,100100.78
2022-10-29T03:12:25.138Z,100102.56
2022-10-29T03:14:53.386Z,100111.09
2022-10-29T03:17:21.750Z,100113.03
2022-10-29T03:19:50.157Z,100112.16
2022-10-29T03:22:18.412Z,100102.47
2022-10-29T03:24:46.868Z,100109.66
2022-10-29T03:27:14.903Z,100111.47
2022-10-29T03:29:44.449Z,100108.00
2022-10-29T03:32:12.669Z,100109.59
2022-10-29T03:34:41.177Z,100111.16
2022-10-29T03:37:09.283Z,100126.31
2022-10-29T03:39:37.704Z,100114.78
2022-10-29T03:42:06.274Z,100114.63
2022-10-29T03:44:34.735Z,100102.41
2022-10-29T03:47:05.714Z,100103.22
2022-10-29T03:49:33.805Z,100118.41
2022-10-29T03:52:01.956Z,100120.47
2022-10-29T03:54:30.322Z,100122.94
2022-10-29T03:56:58.459Z,100128.16
2022-10-29T03:59:27.159Z,100120.28
2022-10-29T04:01:55.557Z,100138.94
2022-10-29T04:04:25.554Z,100152.16
2022-10-29T04:06:54.157Z,100150.22
2022-10-29T04:09:22.497Z,100152.00
2022-10-29T04:11:50.898Z,100155.69
2022-10-29T04:14:19.277Z,100160.09
2022-10-29T04:16:47.608Z,100163.41
2022-10-29T04:19:15.837Z,100162.72
2022-10-29T04:32:42.241Z,100194.50
2022-10-29T04:35:10.987Z,100204.81
2022-10-29T04:37:41.217Z,100217.06
2022-10-29T04:40:10.704Z,100209.97
2022-10-29T04:42:39.062Z,100215.25
2022-10-29T04:45:09.027Z,100225.75
2022-10-29T04:47:37.514Z,100229.47
2022-10-29T04:50:06.384Z,100227.41
2022-10-29T04:52:34.596Z,100240.84
2022-10-29T04:55:04.291Z,100235.41
2022-10-29T04:57:32.538Z,100232.00
2022-10-29T05:00:00.688Z,100227.34
2022-10-29T05:02:28.838Z,100225.69
2022-10-29T05:04:56.902Z,100232.75
2022-10-29T05:07:25.303Z,100230.97
2022-10-29T05:09:53.558Z,100245.44
2022-10-29T05:12:22.931Z,100245.44
2022-10-29T05:14:51.267Z,100234.06
2022-10-29T05:17:19.579Z,100236.53
2022-10-29T05:19:47.792Z,100229.47
2022-10-29T05:22:16.127Z,100225.97
2022-10-29T05:24:44.469Z,100234.03
2022-10-29T05:27:12.441Z,100225.97
2022-10-29T05:29:42.004Z,100237.56
2022-10-29T05:32:10.236Z,100226.19
2022-10-29T05:34:40.660Z,100236.75
2022-10-29T05:37:10.326Z,100236.63
2022-10-29T05:39:38.378Z,100233.13
2022-10-29T05:42:07.365Z,100227.00
2022-10-29T05:44:35.493Z,100238.50
2022-10-29T05:47:07.336Z,100248.06
2022-10-29T05:49:35.754Z,100239.16
2022-10-29T05:52:04.010Z,100242.84
2022-10-29T05:54:32.213Z,100250.72
2022-10-29T05:57:00.820Z,100242.19
2022-10-29T05:59:32.727Z,100235.09
2022-10-29T06:02:02.259Z,100242.09
2022-10-29T06:04:31.960Z,100243.78
2022-10-29T06:07:00.087Z,100244.72
2022-10-29T06:09:28.546Z,100242.25
2022-10-29T06:11:57.364Z,100249.34
2022-10-29T06:14:25.695Z,100234.66
2022-10-29T06:16:54.006Z,100243.34
2022-10-29T06:19:22.270Z,100244.22
2022-10-29T06:21:55.192Z,100262.66
2022-10-29T06:24:26.273Z,100257.31
2022-10-29T06:26:54.959Z,100252.13
2022-10-29T06:29:23.361Z,100261.88
2022-10-29T06:31:51.970Z,100259.09
2022-10-29T06:34:20.550Z,100254.44
2022-10-29T06:36:49.018Z,100263.31
2022-10-29T06:39:19.172Z,100257.41
2022-10-29T06:41:51.518Z,100277.53
2022-10-29T06:44:20.001Z,100269.38
2022-10-29T06:46:48.150Z,100270.19
2022-10-29T06:49:16.297Z,100270.03
2022-10-29T06:51:44.768Z,100278.94
2022-10-29T06:54:13.120Z,100278.78
2022-10-29T06:56:42.870Z,100271.78
2022-10-29T06:59:11.655Z,100272.44
2022-10-29T07:01:40.230Z,100280.41
2022-10-29T07:04:08.523Z,100280.25
2022-10-29T07:06:38.011Z,100290.00
2022-10-29T07:09:06.093Z,100292.34
2022-10-29T07:11:35.855Z,100281.72
2022-10-29T07:14:06.531Z,100275.38
2022-10-29T07:16:35.040Z,100279.91
2022-10-29T07:19:04.307Z,100306.41
2022-10-29T07:21:32.779Z,100293.88
2022-10-29T07:24:01.042Z,100280.03
2022-10-29T07:26:32.054Z,100279.13
2022-10-29T07:29:00.540Z,100288.81
2022-10-29T07:31:31.087Z,100276.44
2022-10-29T07:33:59.193Z,100277.94
2022-10-29T07:36:27.698Z,100280.41
2022-10-29T07:38:55.914Z,100271.75
2022-10-29T07:41:24.685Z,100257.09
2022-10-29T07:43:53.456Z,100272.59
2022-10-29T07:46:21.498Z,100274.25
2022-10-29T07:48:51.642Z,100284.13
2022-10-29T07:51:20.427Z,100279.47
2022-10-29T07:53:49.190Z,100274.00
2022-10-29T07:56:17.570Z,100267.91
2022-10-29T07:58:46.051Z,100281.13
2022-10-29T08:01:14.261Z,100276.63
2022-10-29T08:03:42.514Z,100282.88
2022-10-29T08:06:12.206Z,100278.59
2022-10-29T08:08:40.593Z,100292.63
2022-10-29T08:11:08.996Z,100290.81
2022-10-29T08:13:37.473Z,100288.06
2022-10-29T08:16:05.961Z,100296.97
2022-10-29T08:18:33.980Z,100305.66
2022-10-29T08:21:06.070Z,100288.34
2022-10-29T08:23:35.736Z,100300.44
2022-10-29T08:26:04.218Z,100298.72
2022-10-29T08:28:35.681Z,100297.03
2022-10-29T08:31:04.432Z,100307.31
2022-10-29T08:33:32.539Z,100307.41
2022-10-29T08:36:01.160Z,100290.75
2022-10-29T08:38:29.462Z,100300.06
2022-10-29T08:41:17.640Z,100307.25
2022-10-29T08:44:04.827Z,100298.44
2022-10-29T08:46:44.724Z,100298.50
2022-10-29T08:49:18.459Z,100293.13
2022-10-29T08:51:54.221Z,100298.63
2022-10-29T08:54:30.628Z,100309.13
2022-10-29T08:57:07.514Z,100317.91
2022-10-29T08:59:42.168Z,100312.72
2022-10-29T09:02:17.262Z,100335.66
2022-10-29T09:04:45.791Z,100316.31
2022-10-29T09:07:36.828Z,100342.56
2022-10-29T09:10:15.731Z,100330.09
2022-10-29T09:13:01.626Z,100331.75
2022-10-29T09:15:46.394Z,100322.75
2022-10-29T09:18:25.936Z,100337.03
2022-10-29T09:21:02.315Z,100334.44
2022-10-29T09:23:49.283Z,100340.09
2022-10-29T09:26:21.908Z,100340.81
2022-10-29T09:29:01.649Z,100355.09
2022-10-29T09:31:38.780Z,100321.16
2022-10-29T09:34:14.538Z,100328.72
2022-10-29T09:36:42.709Z,100334.69
2022-10-29T09:39:15.600Z,100311.91
2022-10-29T09:41:45.773Z,100312.78
2022-10-29T09:44:23.907Z,100322.91
2022-10-29T09:47:09.397Z,100312.22
2022-10-29T09:49:49.027Z,100322.75
2022-10-29T09:52:21.081Z,100308.44
2022-10-29T09:54:53.204Z,100326.78
2022-10-29T10:00:20.175Z,100312.09
2022-10-29T10:02:55.672Z,100332.00
2022-10-29T10:05:28.253Z,100331.97
2022-10-29T10:08:09.008Z,100306.94
2022-10-29T10:10:40.970Z,100320.06
2022-10-29T10:13:17.214Z,100337.53
2022-10-29T10:15:54.578Z,100313.84
2022-10-29T10:18:26.744Z,100341.69
2022-10-29T10:21:05.569Z,100334.69
2022-10-29T10:23:43.140Z,100331.13
2022-10-29T10:26:34.178Z,100332.06
2022-10-29T10:29:16.476Z,100342.47
2022-10-29T10:31:47.872Z,100341.41
2022-10-29T10:34:19.447Z,100350.41
2022-10-29T10:36:51.808Z,100352.25
2022-10-29T10:39:32.362Z,100361.94
2022-10-29T10:42:04.220Z,100358.25
2022-10-29T10:44:33.528Z,100355.84
2022-10-29T10:47:09.074Z,100362.75
2022-10-29T10:49:39.784Z,100358.97
2022-10-29T10:52:17.718Z,100346.97
2022-10-29T10:54:48.190Z,100353.69
2022-10-29T10:57:23.211Z,100358.38
2022-10-29T10:59:59.537Z,100363.63
2022-10-29T11:02:37.488Z,100357.28
2022-10-29T11:05:14.022Z,100364.09
2022-10-29T11:07:47.258Z,100362.44
2022-10-29T11:10:17.329Z,100365.75
2022-10-29T11:12:49.575Z,100375.59
2022-10-29T11:15:24.878Z,100369.25
2022-10-29T11:17:57.747Z,100371.44
2022-10-29T11:20:30.083Z,100364.41
2022-10-29T11:23:12.755Z,100371.38
2022-10-29T11:25:46.451Z,100355.50
2022-10-29T11:28:24.927Z,100356.28
2022-10-29T11:30:59.452Z,100366.16
2022-10-29T11:33:43.458Z,100369.03
2022-10-29T11:36:19.981Z,100360.88
2022-10-29T11:38:52.613Z,100353.91
2022-10-29T11:41:30.550Z,100362.59
2022-10-29T11:43:59.173Z,100355.72
2022-10-29T11:46:43.571Z,100348.72
2022-10-29T11:49:27.673Z,100355.72
2022-10-29T11:52:06.633Z,100353.81
2022-10-29T11:54:58.624Z,100359.28
2022-10-29T11:57:35.271Z,100361.06
2022-10-29T12:00:15.684Z,100359.47
2022-10-29T12:03:21.476Z,100359.41
2022-10-29T12:06:04.573Z,100345.19
2022-10-29T12:08:47.805Z,100353.13
2022-10-29T12:11:24.024Z,100337.19
2022-10-29T12:14:00.647Z,100342.56
2022-10-29T12:16:43.084Z,100341.53
2022-10-29T12:19:23.477Z,100343.41
2022-10-29T12:22:02.893Z,100347.00
2022-10-29T12:24:47.476Z,100341.66
2022-10-29T12:27:23.216Z,100344.34
2022-10-29T12:29:59.248Z,100345.19
2022-10-29T12:32:34.990Z,100343.41
2022-10-29T12:35:13.893Z,100341.41
2022-10-29T12:37:50.216Z,100334.34
2022-10-29T12:40:23.795Z,100338.78
2022-10-29T12:42:52.974Z,100332.66
2022-10-29T12:45:33.530Z,100325.53
2022-10-29T12:48:10.486Z,100332.66
2022-10-29T12:50:53.497Z,100331.78
2022-10-29T12:53:34.004Z,100328.28
2022-10-29T12:56:05.102Z,100321.75
2022-10-29T12:58:49.131Z,100304.56
2022-10-29T13:04:35.706Z,100312.28
2022-10-29T13:07:06.748Z,100319.91
2022-10-29T13:09:38.299Z,100311.16
2022-10-29T13:12:11.677Z,100297.19
2022-10-29T13:14:44.987Z,100311.16
2022-10-29T13:17:30.227Z,100324.25
2022-10-29T13:20:01.980Z,100321.31
2022-10-29T13:22:54.112Z,100321.41
2022-10-29T13:25:49.570Z,100296.94
2022-10-29T13:28:48.051Z,100317.84
2022-10-29T13:31:49.575Z,100310.75
2022-10-29T13:34:56.561Z,100319.59
2022-10-29T13:37:55.799Z,100351.38
2022-10-29T13:41:05.138Z,100360.16
2022-10-29T13:43:36.856Z,100351.19
2022-10-29T13:46:30.840Z,100338.97
2022-10-29T13:49:04.527Z,100331.44
2022-10-29T13:51:39.430Z,100358.41
2022-10-29T13:54:16.872Z,100349.63
2022-10-29T13:56:51.379Z,100367.34
2022-10-29T13:59:30.404Z,100360.34
2022-10-29T14:02:06.537Z,100365.59
2022-10-29T14:04:41.094Z,100357.50
2022-10-29T14:07:18.499Z,100355.19
2022-10-29T14:09:52.821Z,100355.00
2022-10-29T14:12:27.562Z,100346.38
2022-10-29T14:15:05.571Z,100343.72
2022-10-29T14:17:34.483Z,100352.59
2022-10-29T14:20:03.428Z,100335.22
2022-10-29T14:22:37.390Z,100346.63
2022-10-29T14:25:28.759Z,100354.63
2022-10-29T14:28:17.017Z,100355.41
2022-10-29T14:30:49.589Z,100362.38
2022-10-29T14:33:29.899Z,100371.81
2022-10-29T14:36:03.438Z,100372.84
2022-10-29T14:38:39.002Z,100371.06
2022-10-29T14:41:07.578Z,100377.00
2022-10-29T14:43:38.361Z,100383.28
2022-10-29T14:46:23.181Z,100378.06
2022-10-29T14:49:07.194Z,100374.78
2022-10-29T14:51:41.083Z,100378.25
2022-10-29T14:54:17.317Z,100363.34
2022-10-29T14:56:46.246Z,100363.31
2022-10-29T14:59:21.686Z,100362.38
2022-10-29T15:02:00.906Z,100378.13
2022-10-29T15:04:34.555Z,100355.50
2022-10-29T15:07:30.848Z,100373.03
2022-10-29T15:10:20.139Z,100358.91
2022-10-29T15:12:49.416Z,100371.06
2022-10-29T15:15:27.113Z,100359.72
2022-10-29T15:18:01.951Z,100360.50
2022-10-29T15:20:37.392Z,100371.66
2022-10-29T15:23:06.997Z,100373.53
2022-10-29T15:25:38.494Z,100361.34
2022-10-29T15:28:16.469Z,100356.03
2022-10-29T15:30:45.082Z,100378.72
2022-10-29T15:33:19.708Z,100373.34
2022-10-29T15:35:53.008Z,100368.72
2022-10-29T15:39:19.759Z,100370.50
2022-10-29T15:41:50.903Z,100363.63
2022-10-29T15:44:33.153Z,100362.94
2022-10-29T15:47:03.457Z,100371.72
2022-10-29T15:49:34.745Z,100378.81
2022-10-29T15:52:03.537Z,100366.50
2022-10-29T15:54:32.154Z,100382.09
2022-10-29T15:57:01.486Z,100375.34
2022-10-29T15:59:30.815Z,100391.28
2022-10-29T16:01:59.272Z,100375.34
2022-10-29T16:04:28.426Z,100378.91
2022-10-29T16:06:59.035Z,100381.47
2022-10-29T16:09:28.462Z,100381.75
2022-10-29T16:11:57.131Z,100379.06
2022-10-29T16:14:25.483Z,100382.63
2022-10-29T16:16:54.221Z,100370.41
2022-10-29T16:19:23.358Z,100352.97
2022-10-29T16:21:55.612Z,100353.72
2022-10-29T16:24:29.168Z,100360.00
2022-10-29T16:26:57.965Z,100366.19
2022-10-29T16:29:26.658Z,100365.44
2022-10-29T16:31:55.600Z,100367.19
2022-10-29T16:34:24.937Z,100370.78
2022-10-29T16:36:53.682Z,100376.00
2022-10-29T16:39:22.746Z,100376.00
2022-10-29T16:41:53.022Z,100371.78
2022-10-29T16:44:22.729Z,100383.06
2022-10-29T16:46:53.575Z,100384.75
2022-10-29T16:49:24.984Z,100378.69
2022-10-29T16:51:53.745Z,100377.81
2022-10-29T16:54:22.204Z,100381.47
2022-10-29T16:56:55.439Z,100383.47
2022-10-29T16:59:24.144Z,100387.78
2022-10-29T17:01:53.278Z,100366.78
2022-10-29T17:04:21.759Z,100392.16
2022-10-29T17:06:51.183Z,100381.66
2022-10-29T17:09:25.243Z,100388.69
2022-10-29T17:11:55.558Z,100386.94
2022-10-29T17:14:25.679Z,100369.63
2022-10-29T17:16:54.445Z,100383.47
2022-10-29T17:19:23.088Z,100378.34
2022-10-29T17:21:51.777Z,100376.47
2022-10-29T17:24:20.549Z,100379.94
2022-10-29T17:26:49.262Z,100372.94
2022-10-29T17:29:19.437Z,100389.75
2022-10-29T17:31:47.907Z,100385.28
2022-10-29T17:34:16.628Z,100397.72
2022-10-29T17:36:45.685Z,100382.09
2022-10-29T17:39:14.010Z,100389.03
2022-10-29T17:41:42.494Z,100395.31
2022-10-29T17:44:11.379Z,100394.44
2022-10-29T17:46:43.821Z,100390.78
2022-10-29T17:49:13.608Z,100367.25
2022-10-29T17:51:42.964Z,100396.19
2022-10-29T17:54:14.617Z,100389.25
2022-10-29T17:56:42.919Z,100387.28
2022-10-29T17:59:12.472Z,100386.22
2022-10-29T18:01:42.709Z,100385.41
2022-10-29T18:04:14.214Z,100391.28
2022-10-29T18:06:42.636Z,100396.44
2022-10-29T18:09:17.154Z,100400.06
2022-10-29T18:11:50.079Z,100402.97
2022-10-29T18:14:18.758Z,100388.91
2022-10-29T18:16:49.042Z,100404.41
2022-10-29T18:19:18.996Z,100400.84
2022-10-29T18:21:47.910Z,100403.63
2022-10-29T18:24:16.648Z,100395.91
2022-10-29T18:26:50.587Z,100408.94
2022-10-29T18:29:19.015Z,100408.84
2022-10-29T18:31:49.044Z,100406.31
2022-10-29T18:34:17.650Z,100408.03
2022-10-29T18:36:47.724Z,100419.47
2022-10-29T18:39:18.527Z,100427.59
2022-10-29T18:41:47.093Z,100427.59
2022-10-29T18:44:15.196Z,100427.69
2022-10-29T18:46:43.973Z,100438.09
2022-10-29T18:49:14.006Z,100430.84
2022-10-29T18:51:42.509Z,100425.81
2022-10-29T18:54:15.096Z,100433.56
2022-10-29T18:56:43.960Z,100435.34
2022-10-29T18:59:12.888Z,100422.22
2022-10-29T19:01:44.836Z,100438.81
2022-10-29T19:04:18.594Z,100438.03
2022-10-29T19:06:47.016Z,100439.63
2022-10-29T19:09:16.538Z,100439.53
2022-10-29T19:11:45.220Z,100434.25
2022-10-29T19:14:15.633Z,100432.47
2022-10-29T19:16:44.146Z,100433.13
2022-10-29T19:19:17.284Z,100433.13
2022-10-29T19:21:49.911Z,100432.31
2022-10-29T19:24:18.231Z,100437.59
2022-10-29T19:26:46.558Z,100427.91
2022-10-29T19:29:16.227Z,100425.31
2022-10-29T19:31:47.085Z,100437.66
2022-10-29T19:34:17.778Z,100444.75
2022-10-29T19:36:46.231Z,100443.03
2022-10-29T19:39:14.587Z,100439.47
2022-10-29T19:41:43.243Z,100436.00
2022-10-29T19:44:11.990Z,100435.19
2022-10-29T19:46:40.414Z,100441.28
2022-10-29T19:49:09.255Z,100443.03
2022-10-29T19:51:40.708Z,100449.44
2022-10-29T19:54:09.950Z,100461.88
2022-10-29T19:56:38.997Z,100468.06
2022-10-29T19:59:07.811Z,100472.47
2022-10-29T20:01:39.386Z,100464.38
2022-10-29T20:04:08.173Z,100463.38
2022-10-29T20:06:36.348Z,100468.78
2022-10-29T20:09:06.365Z,100459.25
2022-10-29T20:11:35.468Z,100478.69
2022-10-29T20:14:04.162Z,100475.28
2022-10-29T20:16:32.527Z,100489.28
2022-10-29T20:19:01.238Z,100490.91
2022-10-29T20:21:29.969Z,100489.28
2022-10-29T20:23:58.370Z,100477.03
2022-10-29T20:26:29.586Z,100499.78
2022-10-29T20:28:58.231Z,100499.69
2022-10-29T20:31:31.201Z,100492.56
2022-10-29T20:34:02.551Z,100492.84
2022-10-29T20:36:32.934Z,100503.25
2022-10-29T20:39:01.804Z,100501.75
2022-10-29T20:41:32.632Z,100475.53
2022-10-29T20:44:02.973Z,100490.91
2022-10-29T20:46:31.526Z,100480.44
2022-10-29T20:49:00.388Z,100501.41
2022-10-29T20:51:29.277Z,100484.06
2022-10-29T20:53:57.480Z,100513.72
2022-10-29T20:56:27.542Z,100511.44
2022-10-29T20:58:57.310Z,100514.75
2022-10-29T21:01:25.961Z,100511.19
2022-10-29T21:03:54.287Z,100484.88
2022-10-29T21:06:22.720Z,100510.94
2022-10-29T21:08:52.769Z,100501.53
2022-10-29T21:11:22.575Z,100508.22
2022-10-29T21:13:51.931Z,100515.41
2022-10-29T21:16:23.545Z,100513.72
2022-10-29T21:18:53.682Z,100511.91
2022-10-29T21:21:22.211Z,100514.56
2022-10-29T21:23:58.669Z,100512.84
2022-10-29T21:26:28.372Z,100522.56
2022-10-29T21:28:57.581Z,100507.59
2022-10-29T21:31:27.338Z,100492.84
2022-10-29T21:33:56.770Z,100507.09
2022-10-29T21:36:25.025Z,100514.94
2022-10-29T21:38:53.459Z,100512.28
2022-10-29T21:41:21.793Z,100510.63
2022-10-29T21:43:50.075Z,100508.97
2022-10-29T21:46:18.482Z,100517.72
2022-10-29T21:48:48.178Z,100525.66
2022-10-29T21:51:18.345Z,100512.50
2022-10-29T21:53:46.483Z,100521.25
2022-10-29T21:56:15.909Z,100523.16
2022-10-29T21:58:44.501Z,100529.47
2022-10-29T22:01:14.372Z,100533.94
2022-10-29T22:03:45.133Z,100526.69
2022-10-29T22:06:16.490Z,100524.88
2022-10-29T22:08:45.822Z,100510.81
2022-10-29T22:11:14.820Z,100524.88
2022-10-29T22:13:43.043Z,100524.88
2022-10-29T22:16:12.166Z,100517.81
2022-10-29T22:18:40.847Z,100525.59
2022-10-29T22:21:12.817Z,100521.09
2022-10-29T22:23:45.662Z,100514.09
2022-10-29T22:26:15.248Z,100510.69
2022-10-29T22:28:43.797Z,100526.69
2022-10-29T22:31:12.647Z,100528.41
2022-10-29T22:33:40.895Z,100524.81
2022-10-29T22:36:11.750Z,100535.25
2022-10-29T22:38:40.669Z,100541.41
2022-10-29T22:41:15.744Z,100535.44
2022-10-29T22:43:44.580Z,100540.53
2022-10-29T22:46:14.530Z,100545.75
2022-10-29T22:48:43.825Z,100540.47
2022-10-29T22:51:15.506Z,100549.50
2022-10-29T22:53:45.742Z,100545.09
2022-10-29T22:56:16.871Z,100550.41
2022-10-29T22:58:45.633Z,100551.16
2022-10-29T23:01:15.832Z,100549.44
2022-10-29T23:03:44.959Z,100545.72
2022-10-29T23:06:14.666Z,100536.81
2022-10-29T23:08:44.466Z,100530.59
2022-10-29T23:11:19.592Z,100529.66
2022-10-29T23:13:48.867Z,100537.69
2022-10-29T23:16:17.479Z,100532.44
2022-10-29T23:18:50.476Z,100531.63
2022-10-29T23:21:19.092Z,100537.78
2022-10-29T23:23:49.897Z,100540.38
2022-10-29T23:26:20.787Z,100547.31
2022-10-29T23:28:49.978Z,100531.53
2022-10-29T23:31:20.051Z,100549.44
2022-10-29T23:33:49.867Z,100543.28
2022-10-29T23:36:19.204Z,100543.41
2022-10-29T23:38:47.530Z,100561.88
2022-10-29T23:41:15.934Z,100552.09
2022-10-29T23:43:45.588Z,100547.69
2022-10-29T23:46:14.102Z,100549.25
2022-10-29T23:48:42.358Z,100546.66
2022-10-29T23:51:10.624Z,100546.66
2022-10-29T23:53:39.153Z,100545.75
2022-10-29T23:56:07.888Z,100551.25
2022-10-29T23:58:36.262Z,100542.78
